Check out our new PWSWeather beta!
PWSweather.com
Personal Weather Stations
Station Observations
KNCGREEN1000
Bell Orchard Drive, Greensboro, NC 27455

Bell Orchard DriveGreensboro, NC 27455

Lat: 36.132, Lon: -79.8

Elevation: 876

Station Type: Acurite Atlas

Http://www.gilhutcheson.com

High Low Average
Temperature 47.5°F8.6°C 26.3°F-3.2°C 36.4°F2.4°C
Dew Point 29.9°F-1.2°C 22.6°F-5.2°C 26.7°F-2.9°C
Winds 6.0 mph 9.7 kmh Calm Calm 2.0 mph SE3.2 kmh SE
Wind Gusts -- -- --
Humidity 93% 39% 70%
Pressure 30.55 in1034.5 mb 30.33 in1027.1 mb -
Precipitation 0.00 in0.0 mm - -
Hour Temp Dew Point Humidity Winds Wind Gusts Pressure Precip Precip Rate Daily Precip Total
12:03 AM 31.4°F-0.3°C 27.1°F-2.7°C 84% 1.0 mph E1.6 kmh E -- 30.50 in1032.8 mb 0.00 in0.0 mm 0.00 in0.0 mm 0.00 in0.0 mm
12:09 AM 31.3°F-0.4°C 27.2°F-2.7°C 85% Calm Calm -- 30.50 in1032.8 mb 0.00 in0.0 mm 0.00 in0.0 mm 0.00 in0.0 mm
12:13 AM 31.1°F-0.5°C 27.3°F-2.6°C 86% Calm Calm -- 30.50 in1032.8 mb 0.00 in0.0 mm 0.00 in0.0 mm 0.00 in0.0 mm
12:18 AM 30.9°F-0.6°C 27.5°F-2.5°C 87% Calm Calm -- 30.50 in1032.8 mb 0.00 in0.0 mm 0.00 in0.0 mm 0.00 in0.0 mm
12:23 AM 30.8°F-0.7°C 27.3°F-2.6°C 87% Calm Calm -- 30.50 in1032.8 mb 0.00 in0.0 mm 0.00 in0.0 mm 0.00 in0.0 mm
12:28 AM 30.6°F-0.8°C 27.1°F-2.7°C 87% Calm Calm -- 30.50 in1032.8 mb 0.00 in0.0 mm 0.00 in0.0 mm 0.00 in0.0 mm
12:33 AM 30.9°F-0.6°C 28.0°F-2.2°C 89% Calm Calm -- 30.50 in1032.8 mb 0.00 in0.0 mm 0.00 in0.0 mm 0.00 in0.0 mm
12:38 AM 30.9°F-0.6°C 28.0°F-2.2°C 89% Calm Calm -- 30.50 in1032.8 mb 0.00 in0.0 mm 0.00 in0.0 mm 0.00 in0.0 mm
12:43 AM 30.8°F-0.7°C 27.8°F-2.3°C 89% Calm Calm -- 30.50 in1032.8 mb 0.00 in0.0 mm 0.00 in0.0 mm 0.00 in0.0 mm
12:49 AM 30.6°F-0.8°C 27.7°F-2.4°C 89% Calm Calm -- 30.50 in1032.8 mb 0.00 in0.0 mm 0.00 in0.0 mm 0.00 in0.0 mm
12:53 AM 30.7°F-0.7°C 27.8°F-2.3°C 89% Calm Calm -- 30.50 in1032.8 mb 0.00 in0.0 mm 0.00 in0.0 mm 0.00 in0.0 mm
12:58 AM 30.5°F-0.8°C 27.7°F-2.4°C 89% Calm Calm -- 30.50 in1032.8 mb 0.00 in0.0 mm 0.00 in0.0 mm 0.00 in0.0 mm
01:04 AM 30.2°F-1.0°C 27.3°F-2.6°C 89% Calm Calm -- 30.50 in1032.8 mb 0.00 in0.0 mm 0.00 in0.0 mm 0.00 in0.0 mm
01:14 AM 30.0°F-1.1°C 27.1°F-2.7°C 89% Calm Calm -- 30.50 in1032.8 mb 0.00 in0.0 mm 0.00 in0.0 mm 0.00 in0.0 mm
01:18 AM 29.9°F-1.2°C 27.2°F-2.7°C 90% Calm Calm -- 30.51 in1033.2 mb 0.00 in0.0 mm 0.00 in0.0 mm 0.00 in0.0 mm
01:23 AM 29.9°F-1.2°C 27.2°F-2.7°C 90% Calm Calm -- 30.50 in1032.8 mb 0.00 in0.0 mm 0.00 in0.0 mm 0.00 in0.0 mm
01:28 AM 29.9°F-1.2°C 27.2°F-2.7°C 90% Calm Calm -- 30.51 in1033.2 mb 0.00 in0.0 mm 0.00 in0.0 mm 0.00 in0.0 mm
01:34 AM 29.6°F-1.3°C 27.0°F-2.8°C 90% Calm Calm -- 30.51 in1033.2 mb 0.00 in0.0 mm 0.00 in0.0 mm 0.00 in0.0 mm
01:38 AM 29.7°F-1.3°C 27.0°F-2.8°C 90% 1.0 mph ESE1.6 kmh ESE -- 30.50 in1032.8 mb 0.00 in0.0 mm 0.00 in0.0 mm 0.00 in0.0 mm
01:43 AM 29.7°F-1.3°C 27.0°F-2.8°C 90% Calm Calm -- 30.51 in1033.2 mb 0.00 in0.0 mm 0.00 in0.0 mm 0.00 in0.0 mm
01:48 AM 29.8°F-1.2°C 27.2°F-2.7°C 90% Calm Calm -- 30.51 in1033.2 mb 0.00 in0.0 mm 0.00 in0.0 mm 0.00 in0.0 mm
01:54 AM 29.7°F-1.3°C 27.0°F-2.8°C 90% Calm Calm -- 30.51 in1033.2 mb 0.00 in0.0 mm 0.00 in0.0 mm 0.00 in0.0 mm
01:58 AM 29.6°F-1.3°C 27.0°F-2.8°C 90% 2.0 mph E3.2 kmh E -- 30.51 in1033.2 mb 0.00 in0.0 mm 0.00 in0.0 mm 0.00 in0.0 mm
02:03 AM 29.6°F-1.3°C 27.0°F-2.8°C 90% 4.0 mph SE6.4 kmh SE -- 30.51 in1033.2 mb 0.00 in0.0 mm 0.00 in0.0 mm 0.00 in0.0 mm
02:09 AM 29.8°F-1.2°C 27.2°F-2.7°C 90% Calm Calm -- 30.51 in1033.2 mb 0.00 in0.0 mm 0.00 in0.0 mm 0.00 in0.0 mm
02:14 AM 29.7°F-1.3°C 26.8°F-2.9°C 89% Calm Calm -- 30.51 in1033.2 mb 0.00 in0.0 mm 0.00 in0.0 mm 0.00 in0.0 mm
02:18 AM 29.8°F-1.2°C 27.0°F-2.8°C 89% 1.0 mph SE1.6 kmh SE -- 30.51 in1033.2 mb 0.00 in0.0 mm 0.00 in0.0 mm 0.00 in0.0 mm
02:23 AM 29.7°F-1.3°C 26.8°F-2.9°C 89% 1.0 mph SE1.6 kmh SE -- 30.51 in1033.2 mb 0.00 in0.0 mm 0.00 in0.0 mm 0.00 in0.0 mm
02:28 AM 29.7°F-1.3°C 26.8°F-2.9°C 89% 2.0 mph ESE3.2 kmh ESE -- 30.51 in1033.2 mb 0.00 in0.0 mm 0.00 in0.0 mm 0.00 in0.0 mm
02:34 AM 29.8°F-1.2°C 26.7°F-2.9°C 88% 2.0 mph E3.2 kmh E -- 30.51 in1033.2 mb 0.00 in0.0 mm 0.00 in0.0 mm 0.00 in0.0 mm
02:38 AM 29.7°F-1.3°C 26.2°F-3.2°C 87% 2.0 mph SE3.2 kmh SE -- 30.51 in1033.2 mb 0.00 in0.0 mm 0.00 in0.0 mm 0.00 in0.0 mm
02:43 AM 29.8°F-1.2°C 26.4°F-3.1°C 87% Calm Calm -- 30.51 in1033.2 mb 0.00 in0.0 mm 0.00 in0.0 mm 0.00 in0.0 mm
02:49 AM 29.9°F-1.2°C 26.1°F-3.3°C 86% Calm Calm -- 30.51 in1033.2 mb 0.00 in0.0 mm 0.00 in0.0 mm 0.00 in0.0 mm
02:53 AM 29.9°F-1.2°C 26.1°F-3.3°C 86% Calm Calm -- 30.51 in1033.2 mb 0.00 in0.0 mm 0.00 in0.0 mm 0.00 in0.0 mm
02:58 AM 29.8°F-1.2°C 26.1°F-3.3°C 86% 1.0 mph ESE1.6 kmh ESE -- 30.51 in1033.2 mb 0.00 in0.0 mm 0.00 in0.0 mm 0.00 in0.0 mm
03:03 AM 29.8°F-1.2°C 25.8°F-3.4°C 85% 1.0 mph SE1.6 kmh SE -- 30.51 in1033.2 mb 0.00 in0.0 mm 0.00 in0.0 mm 0.00 in0.0 mm
03:08 AM 29.8°F-1.2°C 25.8°F-3.4°C 85% 2.0 mph SSE3.2 kmh SSE -- 30.51 in1033.2 mb 0.00 in0.0 mm 0.00 in0.0 mm 0.00 in0.0 mm
03:13 AM 29.8°F-1.2°C 25.5°F-3.6°C 84% 3.0 mph ESE4.8 kmh ESE -- 30.51 in1033.2 mb 0.00 in0.0 mm 0.00 in0.0 mm 0.00 in0.0 mm
03:18 AM 29.9°F-1.2°C 25.5°F-3.6°C 84% 2.0 mph ESE3.2 kmh ESE -- 30.51 in1033.2 mb 0.00 in0.0 mm 0.00 in0.0 mm 0.00 in0.0 mm
03:23 AM 30.0°F-1.1°C 25.7°F-3.5°C 84% 3.0 mph SE4.8 kmh SE -- 30.51 in1033.2 mb 0.00 in0.0 mm 0.00 in0.0 mm 0.00 in0.0 mm
03:29 AM 30.2°F-1.0°C 25.6°F-3.6°C 83% 3.0 mph E4.8 kmh E -- 30.50 in1032.8 mb 0.00 in0.0 mm 0.00 in0.0 mm 0.00 in0.0 mm
03:33 AM 30.4°F-0.9°C 25.8°F-3.4°C 83% 1.0 mph SE1.6 kmh SE -- 30.50 in1032.8 mb 0.00 in0.0 mm 0.00 in0.0 mm 0.00 in0.0 mm
03:38 AM 30.6°F-0.8°C 25.7°F-3.5°C 82% 1.0 mph ESE1.6 kmh ESE -- 30.51 in1033.2 mb 0.00 in0.0 mm 0.00 in0.0 mm 0.00 in0.0 mm
03:44 AM 30.7°F-0.7°C 25.8°F-3.4°C 82% 1.0 mph ESE1.6 kmh ESE -- 30.51 in1033.2 mb 0.00 in0.0 mm 0.00 in0.0 mm 0.00 in0.0 mm
03:49 AM 30.5°F-0.8°C 25.7°F-3.5°C 82% 4.0 mph NE6.4 kmh NE -- 30.50 in1032.8 mb 0.00 in0.0 mm 0.00 in0.0 mm 0.00 in0.0 mm
03:53 AM 30.5°F-0.8°C 25.7°F-3.5°C 82% Calm Calm -- 30.51 in1033.2 mb 0.00 in0.0 mm 0.00 in0.0 mm 0.00 in0.0 mm
03:58 AM 30.4°F-0.9°C 25.5°F-3.6°C 82% 2.0 mph E3.2 kmh E -- 30.50 in1032.8 mb 0.00 in0.0 mm 0.00 in0.0 mm 0.00 in0.0 mm
04:04 AM 30.5°F-0.8°C 25.4°F-3.7°C 81% 1.0 mph SE1.6 kmh SE -- 30.50 in1032.8 mb 0.00 in0.0 mm 0.00 in0.0 mm 0.00 in0.0 mm
04:09 AM 30.5°F-0.8°C 25.4°F-3.7°C 81% 2.0 mph ENE3.2 kmh ENE -- 30.50 in1032.8 mb 0.00 in0.0 mm 0.00 in0.0 mm 0.00 in0.0 mm
04:13 AM 30.6°F-0.8°C 25.4°F-3.7°C 81% Calm Calm -- 30.50 in1032.8 mb 0.00 in0.0 mm 0.00 in0.0 mm 0.00 in0.0 mm
04:18 AM 30.6°F-0.8°C 25.4°F-3.7°C 81% 3.0 mph ESE4.8 kmh ESE -- 30.50 in1032.8 mb 0.00 in0.0 mm 0.00 in0.0 mm 0.00 in0.0 mm
04:23 AM 30.8°F-0.7°C 25.5°F-3.6°C 81% 2.0 mph E3.2 kmh E -- 30.50 in1032.8 mb 0.00 in0.0 mm 0.00 in0.0 mm 0.00 in0.0 mm
04:29 AM 30.6°F-0.8°C 25.4°F-3.7°C 81% Calm Calm -- 30.50 in1032.8 mb 0.00 in0.0 mm 0.00 in0.0 mm 0.00 in0.0 mm
04:33 AM 30.5°F-0.8°C 25.4°F-3.7°C 81% 2.0 mph E3.2 kmh E -- 30.51 in1033.2 mb 0.00 in0.0 mm 0.00 in0.0 mm 0.00 in0.0 mm
04:38 AM 30.3°F-0.9°C 25.2°F-3.8°C 81% 3.0 mph SE4.8 kmh SE -- 30.51 in1033.2 mb 0.00 in0.0 mm 0.00 in0.0 mm 0.00 in0.0 mm
04:44 AM 30.3°F-0.9°C 25.2°F-3.8°C 81% 1.0 mph SE1.6 kmh SE -- 30.51 in1033.2 mb 0.00 in0.0 mm 0.00 in0.0 mm 0.00 in0.0 mm
04:48 AM 30.1°F-1.1°C 25.1°F-3.8°C 82% 1.0 mph SE1.6 kmh SE -- 30.50 in1032.8 mb 0.00 in0.0 mm 0.00 in0.0 mm 0.00 in0.0 mm
04:53 AM 30.1°F-1.1°C 25.1°F-3.8°C 82% Calm Calm -- 30.50 in1032.8 mb 0.00 in0.0 mm 0.00 in0.0 mm 0.00 in0.0 mm
04:58 AM 29.9°F-1.2°C 24.9°F-3.9°C 82% Calm Calm -- 30.50 in1032.8 mb 0.00 in0.0 mm 0.00 in0.0 mm 0.00 in0.0 mm
05:03 AM 29.7°F-1.3°C 24.8°F-4.0°C 82% 2.0 mph SE3.2 kmh SE -- 30.50 in1032.8 mb 0.00 in0.0 mm 0.00 in0.0 mm 0.00 in0.0 mm
05:08 AM 29.7°F-1.3°C 25.1°F-3.8°C 83% 2.0 mph SE3.2 kmh SE -- 30.50 in1032.8 mb 0.00 in0.0 mm 0.00 in0.0 mm 0.00 in0.0 mm
05:13 AM 29.6°F-1.3°C 25.1°F-3.8°C 83% 4.0 mph ESE6.4 kmh ESE -- 30.50 in1032.8 mb 0.00 in0.0 mm 0.00 in0.0 mm 0.00 in0.0 mm
05:18 AM 29.6°F-1.3°C 25.1°F-3.8°C 83% 2.0 mph E3.2 kmh E -- 30.50 in1032.8 mb 0.00 in0.0 mm 0.00 in0.0 mm 0.00 in0.0 mm
05:24 AM 29.7°F-1.3°C 25.1°F-3.8°C 83% 2.0 mph ESE3.2 kmh ESE -- 30.50 in1032.8 mb 0.00 in0.0 mm 0.00 in0.0 mm 0.00 in0.0 mm
05:28 AM 29.9°F-1.2°C 25.2°F-3.8°C 83% 3.0 mph E4.8 kmh E -- 30.50 in1032.8 mb 0.00 in0.0 mm 0.00 in0.0 mm 0.00 in0.0 mm
05:33 AM 29.9°F-1.2°C 24.9°F-3.9°C 82% Calm Calm -- 30.50 in1032.8 mb 0.00 in0.0 mm 0.00 in0.0 mm 0.00 in0.0 mm
05:39 AM 29.7°F-1.3°C 25.1°F-3.8°C 83% 2.0 mph SE3.2 kmh SE -- 30.50 in1032.8 mb 0.00 in0.0 mm 0.00 in0.0 mm 0.00 in0.0 mm
05:44 AM 29.5°F-1.4°C 24.6°F-4.1°C 82% 2.0 mph E3.2 kmh E -- 30.51 in1033.2 mb 0.00 in0.0 mm 0.00 in0.0 mm 0.00 in0.0 mm
05:48 AM 29.3°F-1.5°C 24.7°F-4.1°C 83% 1.0 mph SE1.6 kmh SE -- 30.51 in1033.2 mb 0.00 in0.0 mm 0.00 in0.0 mm 0.00 in0.0 mm
05:53 AM 29.1°F-1.6°C 24.5°F-4.2°C 83% Calm Calm -- 30.51 in1033.2 mb 0.00 in0.0 mm 0.00 in0.0 mm 0.00 in0.0 mm
05:59 AM 29.0°F-1.7°C 24.4°F-4.2°C 83% Calm Calm -- 30.51 in1033.2 mb 0.00 in0.0 mm 0.00 in0.0 mm 0.00 in0.0 mm
06:04 AM 28.7°F-1.8°C 24.2°F-4.3°C 83% Calm Calm -- 30.51 in1033.2 mb 0.00 in0.0 mm 0.00 in0.0 mm 0.00 in0.0 mm
06:08 AM 28.4°F-2.0°C 24.1°F-4.4°C 84% Calm Calm -- 30.51 in1033.2 mb 0.00 in0.0 mm 0.00 in0.0 mm 0.00 in0.0 mm
06:13 AM 28.1°F-2.2°C 23.8°F-4.6°C 84% Calm Calm -- 30.51 in1033.2 mb 0.00 in0.0 mm 0.00 in0.0 mm 0.00 in0.0 mm
06:18 AM 27.8°F-2.3°C 23.9°F-4.5°C 85% Calm Calm -- 30.51 in1033.2 mb 0.00 in0.0 mm 0.00 in0.0 mm 0.00 in0.0 mm
06:24 AM 27.4°F-2.6°C 23.6°F-4.7°C 86% Calm Calm -- 30.52 in1033.5 mb 0.00 in0.0 mm 0.00 in0.0 mm 0.00 in0.0 mm
06:28 AM 27.3°F-2.6°C 23.9°F-4.5°C 87% Calm Calm -- 30.52 in1033.5 mb 0.00 in0.0 mm 0.00 in0.0 mm 0.00 in0.0 mm
06:33 AM 26.9°F-2.8°C 23.6°F-4.7°C 87% Calm Calm -- 30.51 in1033.2 mb 0.00 in0.0 mm 0.00 in0.0 mm 0.00 in0.0 mm
06:39 AM 26.7°F-2.9°C 23.4°F-4.8°C 87% Calm Calm -- 30.52 in1033.5 mb 0.00 in0.0 mm 0.00 in0.0 mm 0.00 in0.0 mm
06:43 AM 26.6°F-3.0°C 23.5°F-4.7°C 88% Calm Calm -- 30.52 in1033.5 mb 0.00 in0.0 mm 0.00 in0.0 mm 0.00 in0.0 mm
06:48 AM 26.6°F-3.0°C 23.8°F-4.6°C 89% Calm Calm -- 30.53 in1033.9 mb 0.00 in0.0 mm 0.00 in0.0 mm 0.00 in0.0 mm
06:53 AM 26.6°F-3.0°C 23.8°F-4.6°C 89% Calm Calm -- 30.53 in1033.9 mb 0.00 in0.0 mm 0.00 in0.0 mm 0.00 in0.0 mm
06:58 AM 26.5°F-3.1°C 23.6°F-4.7°C 89% Calm Calm -- 30.53 in1033.9 mb 0.00 in0.0 mm 0.00 in0.0 mm 0.00 in0.0 mm
07:04 AM 26.4°F-3.1°C 23.8°F-4.6°C 90% Calm Calm -- 30.53 in1033.9 mb 0.00 in0.0 mm 0.00 in0.0 mm 0.00 in0.0 mm
07:08 AM 26.3°F-3.2°C 23.7°F-4.6°C 90% Calm Calm -- 30.53 in1033.9 mb 0.00 in0.0 mm 0.00 in0.0 mm 0.00 in0.0 mm
07:13 AM 26.3°F-3.2°C 23.7°F-4.6°C 90% Calm Calm -- 30.53 in1033.9 mb 0.00 in0.0 mm 0.00 in0.0 mm 0.00 in0.0 mm
07:19 AM 26.3°F-3.2°C 23.9°F-4.5°C 91% Calm Calm -- 30.54 in1034.2 mb 0.00 in0.0 mm 0.00 in0.0 mm 0.00 in0.0 mm
07:23 AM 26.3°F-3.2°C 23.9°F-4.5°C 91% Calm Calm -- 30.53 in1033.9 mb 0.00 in0.0 mm 0.00 in0.0 mm 0.00 in0.0 mm
07:28 AM 26.4°F-3.1°C 24.1°F-4.4°C 91% Calm Calm -- 30.53 in1033.9 mb 0.00 in0.0 mm 0.00 in0.0 mm 0.00 in0.0 mm
07:33 AM 26.3°F-3.2°C 23.9°F-4.5°C 91% Calm Calm -- 30.54 in1034.2 mb 0.00 in0.0 mm 0.00 in0.0 mm 0.00 in0.0 mm
07:39 AM 26.3°F-3.2°C 24.2°F-4.3°C 92% 1.0 mph ESE1.6 kmh ESE -- 30.54 in1034.2 mb 0.00 in0.0 mm 0.00 in0.0 mm 0.00 in0.0 mm
07:44 AM 26.4°F-3.1°C 24.4°F-4.2°C 92% 1.0 mph ESE1.6 kmh ESE -- 30.53 in1033.9 mb 0.00 in0.0 mm 0.00 in0.0 mm 0.00 in0.0 mm
07:48 AM 26.4°F-3.1°C 24.4°F-4.2°C 92% Calm Calm -- 30.54 in1034.2 mb 0.00 in0.0 mm 0.00 in0.0 mm 0.00 in0.0 mm
07:53 AM 26.6°F-3.0°C 24.6°F-4.1°C 92% Calm Calm -- 30.54 in1034.2 mb 0.00 in0.0 mm 0.00 in0.0 mm 0.00 in0.0 mm
07:59 AM 26.5°F-3.1°C 24.4°F-4.2°C 92% 2.0 mph NNE3.2 kmh NNE -- 30.54 in1034.2 mb 0.00 in0.0 mm 0.00 in0.0 mm 0.00 in0.0 mm
08:03 AM 27.2°F-2.7°C 25.4°F-3.7°C 93% 1.0 mph NNW1.6 kmh NNW -- 30.54 in1034.2 mb 0.00 in0.0 mm 0.00 in0.0 mm 0.00 in0.0 mm
08:08 AM 27.2°F-2.7°C 25.1°F-3.8°C 92% 1.0 mph ESE1.6 kmh ESE -- 30.54 in1034.2 mb 0.00 in0.0 mm 0.00 in0.0 mm 0.00 in0.0 mm
08:13 AM 27.3°F-2.6°C 25.3°F-3.7°C 92% 2.0 mph NE3.2 kmh NE -- 30.54 in1034.2 mb 0.00 in0.0 mm 0.00 in0.0 mm 0.00 in0.0 mm
08:19 AM 27.6°F-2.4°C 25.6°F-3.6°C 92% 2.0 mph N3.2 kmh N -- 30.54 in1034.2 mb 0.00 in0.0 mm 0.00 in0.0 mm 0.00 in0.0 mm
08:23 AM 28.0°F-2.2°C 26.0°F-3.3°C 92% 2.0 mph NE3.2 kmh NE -- 30.54 in1034.2 mb 0.00 in0.0 mm 0.00 in0.0 mm 0.00 in0.0 mm
08:28 AM 28.6°F-1.9°C 26.3°F-3.2°C 91% 2.0 mph E3.2 kmh E -- 30.54 in1034.2 mb 0.00 in0.0 mm 0.00 in0.0 mm 0.00 in0.0 mm
08:33 AM 29.5°F-1.4°C 26.6°F-3.0°C 89% 4.0 mph NNE6.4 kmh NNE -- 30.54 in1034.2 mb 0.00 in0.0 mm 0.00 in0.0 mm 0.00 in0.0 mm
08:38 AM 30.1°F-1.1°C 26.6°F-3.0°C 87% 3.0 mph NE4.8 kmh NE -- 30.54 in1034.2 mb 0.00 in0.0 mm 0.00 in0.0 mm 0.00 in0.0 mm
08:43 AM 30.7°F-0.7°C 26.7°F-2.9°C 85% 2.0 mph N3.2 kmh N -- 30.55 in1034.5 mb 0.00 in0.0 mm 0.00 in0.0 mm 0.00 in0.0 mm
08:48 AM 30.7°F-0.7°C 26.7°F-2.9°C 85% 2.0 mph ENE3.2 kmh ENE -- 30.54 in1034.2 mb 0.00 in0.0 mm 0.00 in0.0 mm 0.00 in0.0 mm
08:53 AM 31.0°F-0.6°C 26.3°F-3.2°C 83% 2.0 mph NE3.2 kmh NE -- 30.54 in1034.2 mb 0.00 in0.0 mm 0.00 in0.0 mm 0.00 in0.0 mm
08:59 AM 31.3°F-0.4°C 26.9°F-2.8°C 84% 1.0 mph E1.6 kmh E -- 30.54 in1034.2 mb 0.00 in0.0 mm 0.00 in0.0 mm 0.00 in0.0 mm
09:03 AM 31.4°F-0.3°C 26.8°F-2.9°C 83% Calm Calm -- 30.54 in1034.2 mb 0.00 in0.0 mm 0.00 in0.0 mm 0.00 in0.0 mm
09:08 AM 31.9°F-0.1°C 27.2°F-2.7°C 83% 2.0 mph ENE3.2 kmh ENE -- 30.54 in1034.2 mb 0.00 in0.0 mm 0.00 in0.0 mm 0.00 in0.0 mm
09:14 AM 32.2°F0.1°C 27.2°F-2.7°C 82% 2.0 mph SE3.2 kmh SE -- 30.54 in1034.2 mb 0.00 in0.0 mm 0.00 in0.0 mm 0.00 in0.0 mm
09:18 AM 32.5°F0.3°C 27.6°F-2.4°C 82% 3.0 mph NE4.8 kmh NE -- 30.54 in1034.2 mb 0.00 in0.0 mm 0.00 in0.0 mm 0.00 in0.0 mm
09:23 AM 33.0°F0.6°C 27.8°F-2.3°C 81% 2.0 mph E3.2 kmh E -- 30.55 in1034.5 mb 0.00 in0.0 mm 0.00 in0.0 mm 0.00 in0.0 mm
09:28 AM 33.4°F0.8°C 27.9°F-2.3°C 80% 2.0 mph E3.2 kmh E -- 30.55 in1034.5 mb 0.00 in0.0 mm 0.00 in0.0 mm 0.00 in0.0 mm
09:34 AM 34.4°F1.3°C 27.8°F-2.3°C 77% 3.0 mph N4.8 kmh N -- 30.55 in1034.5 mb 0.00 in0.0 mm 0.00 in0.0 mm 0.00 in0.0 mm
09:39 AM 34.8°F1.6°C 28.3°F-2.1°C 77% 3.0 mph N4.8 kmh N -- 30.55 in1034.5 mb 0.00 in0.0 mm 0.00 in0.0 mm 0.00 in0.0 mm
09:43 AM 35.3°F1.8°C 28.3°F-2.1°C 76% 2.0 mph E3.2 kmh E -- 30.54 in1034.2 mb 0.00 in0.0 mm 0.00 in0.0 mm 0.00 in0.0 mm
09:48 AM 35.9°F2.2°C 28.7°F-1.8°C 75% 2.0 mph SE3.2 kmh SE -- 30.54 in1034.2 mb 0.00 in0.0 mm 0.00 in0.0 mm 0.00 in0.0 mm
09:54 AM 36.3°F2.4°C 28.4°F-2.0°C 73% 4.0 mph WNW6.4 kmh WNW -- 30.54 in1034.2 mb 0.00 in0.0 mm 0.00 in0.0 mm 0.00 in0.0 mm
09:58 AM 36.5°F2.5°C 28.2°F-2.1°C 72% 3.0 mph N4.8 kmh N -- 30.54 in1034.2 mb 0.00 in0.0 mm 0.00 in0.0 mm 0.00 in0.0 mm
10:03 AM 37.2°F2.9°C 28.9°F-1.7°C 72% 3.0 mph E4.8 kmh E -- 30.54 in1034.2 mb 0.00 in0.0 mm 0.00 in0.0 mm 0.00 in0.0 mm
10:08 AM 37.8°F3.2°C 28.4°F-2.0°C 69% 4.0 mph ESE6.4 kmh ESE -- 30.53 in1033.9 mb 0.00 in0.0 mm 0.00 in0.0 mm 0.00 in0.0 mm
10:14 AM 38.1°F3.4°C 27.6°F-2.4°C 66% 5.0 mph ESE8.0 kmh ESE -- 30.53 in1033.9 mb 0.00 in0.0 mm 0.00 in0.0 mm 0.00 in0.0 mm
10:18 AM 38.9°F3.8°C 27.9°F-2.3°C 65% 2.0 mph E3.2 kmh E -- 30.53 in1033.9 mb 0.00 in0.0 mm 0.00 in0.0 mm 0.00 in0.0 mm
10:23 AM 39.3°F4.1°C 28.1°F-2.2°C 64% 3.0 mph E4.8 kmh E -- 30.53 in1033.9 mb 0.00 in0.0 mm 0.00 in0.0 mm 0.00 in0.0 mm
10:28 AM 39.4°F4.1°C 28.5°F-1.9°C 65% 2.0 mph ENE3.2 kmh ENE -- 30.53 in1033.9 mb 0.00 in0.0 mm 0.00 in0.0 mm 0.00 in0.0 mm
10:33 AM 39.8°F4.3°C 28.4°F-2.0°C 64% 3.0 mph E4.8 kmh E -- 30.53 in1033.9 mb 0.00 in0.0 mm 0.00 in0.0 mm 0.00 in0.0 mm
10:38 AM 40.0°F4.4°C 29.0°F-1.7°C 65% 6.0 mph E9.7 kmh E -- 30.52 in1033.5 mb 0.00 in0.0 mm 0.00 in0.0 mm 0.00 in0.0 mm
10:43 AM 40.3°F4.6°C 28.9°F-1.7°C 64% 2.0 mph SSE3.2 kmh SSE -- 30.53 in1033.9 mb 0.00 in0.0 mm 0.00 in0.0 mm 0.00 in0.0 mm
10:48 AM 40.6°F4.8°C 29.3°F-1.5°C 64% 2.0 mph SSE3.2 kmh SSE -- 30.53 in1033.9 mb 0.00 in0.0 mm 0.00 in0.0 mm 0.00 in0.0 mm
10:54 AM 40.7°F4.8°C 28.9°F-1.7°C 63% 4.0 mph SE6.4 kmh SE -- 30.53 in1033.9 mb 0.00 in0.0 mm 0.00 in0.0 mm 0.00 in0.0 mm
10:58 AM 41.4°F5.2°C 28.8°F-1.8°C 61% 2.0 mph SE3.2 kmh SE -- 30.52 in1033.5 mb 0.00 in0.0 mm 0.00 in0.0 mm 0.00 in0.0 mm
11:03 AM 42.1°F5.6°C 29.0°F-1.7°C 60% 2.0 mph SE3.2 kmh SE -- 30.52 in1033.5 mb 0.00 in0.0 mm 0.00 in0.0 mm 0.00 in0.0 mm
11:08 AM 42.0°F5.6°C 29.0°F-1.7°C 60% 3.0 mph SE4.8 kmh SE -- 30.52 in1033.5 mb 0.00 in0.0 mm 0.00 in0.0 mm 0.00 in0.0 mm
11:13 AM 42.0°F5.6°C 29.5°F-1.4°C 61% Calm Calm -- 30.52 in1033.5 mb 0.00 in0.0 mm 0.00 in0.0 mm 0.00 in0.0 mm
11:18 AM 42.8°F6.0°C 29.7°F-1.3°C 60% 2.0 mph WSW3.2 kmh WSW -- 30.51 in1033.2 mb 0.00 in0.0 mm 0.00 in0.0 mm 0.00 in0.0 mm
11:23 AM 43.0°F6.1°C 29.9°F-1.2°C 60% 2.0 mph SE3.2 kmh SE -- 30.52 in1033.5 mb 0.00 in0.0 mm 0.00 in0.0 mm 0.00 in0.0 mm
11:28 AM 43.3°F6.3°C 29.8°F-1.2°C 59% 2.0 mph SE3.2 kmh SE -- 30.51 in1033.2 mb 0.00 in0.0 mm 0.00 in0.0 mm 0.00 in0.0 mm
11:34 AM 43.4°F6.3°C 29.0°F-1.7°C 57% 2.0 mph W3.2 kmh W -- 30.51 in1033.2 mb 0.00 in0.0 mm 0.00 in0.0 mm 0.00 in0.0 mm
11:38 AM 43.0°F6.1°C 28.2°F-2.1°C 56% 3.0 mph ESE4.8 kmh ESE -- 30.51 in1033.2 mb 0.00 in0.0 mm 0.00 in0.0 mm 0.00 in0.0 mm
11:43 AM 43.2°F6.2°C 27.9°F-2.3°C 55% 1.0 mph S1.6 kmh S -- 30.50 in1032.8 mb 0.00 in0.0 mm 0.00 in0.0 mm 0.00 in0.0 mm
11:48 AM 43.7°F6.5°C 27.5°F-2.5°C 53% 4.0 mph N6.4 kmh N -- 30.50 in1032.8 mb 0.00 in0.0 mm 0.00 in0.0 mm 0.00 in0.0 mm
11:54 AM 43.8°F6.6°C 27.2°F-2.7°C 52% 3.0 mph SE4.8 kmh SE -- 30.50 in1032.8 mb 0.00 in0.0 mm 0.00 in0.0 mm 0.00 in0.0 mm
11:58 AM 43.7°F6.5°C 26.1°F-3.3°C 50% 4.0 mph ESE6.4 kmh ESE -- 30.50 in1032.8 mb 0.00 in0.0 mm 0.00 in0.0 mm 0.00 in0.0 mm
12:03 PM 44.5°F6.9°C 28.2°F-2.1°C 53% 2.0 mph ESE3.2 kmh ESE -- 30.50 in1032.8 mb 0.00 in0.0 mm 0.00 in0.0 mm 0.00 in0.0 mm
12:08 PM 44.8°F7.1°C 29.4°F-1.4°C 55% 3.0 mph ENE4.8 kmh ENE -- 30.49 in1032.5 mb 0.00 in0.0 mm 0.00 in0.0 mm 0.00 in0.0 mm
12:14 PM 44.0°F6.7°C 28.3°F-2.1°C 54% 2.0 mph NE3.2 kmh NE -- 30.49 in1032.5 mb 0.00 in0.0 mm 0.00 in0.0 mm 0.00 in0.0 mm
12:18 PM 44.7°F7.1°C 29.4°F-1.4°C 55% 5.0 mph N8.0 kmh N -- 30.49 in1032.5 mb 0.00 in0.0 mm 0.00 in0.0 mm 0.00 in0.0 mm
12:23 PM 44.0°F6.7°C 27.4°F-2.6°C 52% 4.0 mph NNW6.4 kmh NNW -- 30.49 in1032.5 mb 0.00 in0.0 mm 0.00 in0.0 mm 0.00 in0.0 mm
12:29 PM 45.3°F7.4°C 29.5°F-1.4°C 54% 4.0 mph N6.4 kmh N -- 30.48 in1032.2 mb 0.00 in0.0 mm 0.00 in0.0 mm 0.00 in0.0 mm
12:33 PM 44.9°F7.2°C 27.3°F-2.6°C 50% 5.0 mph NE8.0 kmh NE -- 30.48 in1032.2 mb 0.00 in0.0 mm 0.00 in0.0 mm 0.00 in0.0 mm
12:38 PM 44.3°F6.8°C 26.1°F-3.3°C 49% 2.0 mph NNE3.2 kmh NNE -- 30.47 in1031.8 mb 0.00 in0.0 mm 0.00 in0.0 mm 0.00 in0.0 mm
12:43 PM 44.3°F6.8°C 25.6°F-3.6°C 48% 2.0 mph SSE3.2 kmh SSE -- 30.47 in1031.8 mb 0.00 in0.0 mm 0.00 in0.0 mm 0.00 in0.0 mm
12:48 PM 45.6°F7.6°C 26.9°F-2.8°C 48% 4.0 mph NNE6.4 kmh NNE -- 30.47 in1031.8 mb 0.00 in0.0 mm 0.00 in0.0 mm 0.00 in0.0 mm
12:54 PM 45.1°F7.3°C 26.9°F-2.8°C 49% 4.0 mph N6.4 kmh N -- 30.46 in1031.5 mb 0.00 in0.0 mm 0.00 in0.0 mm 0.00 in0.0 mm
12:58 PM 45.6°F7.6°C 26.4°F-3.1°C 47% 1.0 mph SSE1.6 kmh SSE -- 30.46 in1031.5 mb 0.00 in0.0 mm 0.00 in0.0 mm 0.00 in0.0 mm
01:03 PM 46.0°F7.8°C 26.2°F-3.2°C 46% 2.0 mph NNE3.2 kmh NNE -- 30.46 in1031.5 mb 0.00 in0.0 mm 0.00 in0.0 mm 0.00 in0.0 mm
01:09 PM 45.5°F7.5°C 26.8°F-2.9°C 48% 4.0 mph NNE6.4 kmh NNE -- 30.45 in1031.2 mb 0.00 in0.0 mm 0.00 in0.0 mm 0.00 in0.0 mm
01:13 PM 45.5°F7.5°C 26.8°F-2.9°C 48% 3.0 mph N4.8 kmh N -- 30.45 in1031.2 mb 0.00 in0.0 mm 0.00 in0.0 mm 0.00 in0.0 mm
01:18 PM 45.5°F7.5°C 25.7°F-3.5°C 46% 5.0 mph N8.0 kmh N -- 30.45 in1031.2 mb 0.00 in0.0 mm 0.00 in0.0 mm 0.00 in0.0 mm
01:23 PM 45.5°F7.5°C 26.8°F-2.9°C 48% 4.0 mph NE6.4 kmh NE -- 30.45 in1031.2 mb 0.00 in0.0 mm 0.00 in0.0 mm 0.00 in0.0 mm
01:29 PM 45.7°F7.6°C 25.9°F-3.4°C 46% 4.0 mph NW6.4 kmh NW -- 30.45 in1031.2 mb 0.00 in0.0 mm 0.00 in0.0 mm 0.00 in0.0 mm
01:33 PM 45.7°F7.6°C 25.9°F-3.4°C 46% 4.0 mph NW6.4 kmh NW -- 30.45 in1031.2 mb 0.00 in0.0 mm 0.00 in0.0 mm 0.00 in0.0 mm
01:38 PM 45.3°F7.4°C 26.1°F-3.3°C 47% 3.0 mph WNW4.8 kmh WNW -- 30.46 in1031.5 mb 0.00 in0.0 mm 0.00 in0.0 mm 0.00 in0.0 mm
01:43 PM 45.9°F7.7°C 25.0°F-3.9°C 44% 3.0 mph NE4.8 kmh NE -- 30.46 in1031.5 mb 0.00 in0.0 mm 0.00 in0.0 mm 0.00 in0.0 mm
01:49 PM 46.8°F8.2°C 24.7°F-4.1°C 42% 2.0 mph E3.2 kmh E -- 30.45 in1031.2 mb 0.00 in0.0 mm 0.00 in0.0 mm 0.00 in0.0 mm
01:53 PM 46.1°F7.8°C 22.9°F-5.1°C 40% Calm Calm -- 30.45 in1031.2 mb 0.00 in0.0 mm 0.00 in0.0 mm 0.00 in0.0 mm
01:58 PM 46.5°F8.1°C 25.6°F-3.6°C 44% 3.0 mph NNE4.8 kmh NNE -- 30.45 in1031.2 mb 0.00 in0.0 mm 0.00 in0.0 mm 0.00 in0.0 mm
02:03 PM 46.4°F8.0°C 22.6°F-5.2°C 39% 3.0 mph NNE4.8 kmh NNE -- 30.45 in1031.2 mb 0.00 in0.0 mm 0.00 in0.0 mm 0.00 in0.0 mm
02:09 PM 46.8°F8.2°C 23.5°F-4.7°C 40% 3.0 mph E4.8 kmh E -- 30.45 in1031.2 mb 0.00 in0.0 mm 0.00 in0.0 mm 0.00 in0.0 mm
02:13 PM 46.7°F8.2°C 24.7°F-4.1°C 42% 3.0 mph NW4.8 kmh NW -- 30.44 in1030.8 mb 0.00 in0.0 mm 0.00 in0.0 mm 0.00 in0.0 mm
02:18 PM 46.8°F8.2°C 25.8°F-3.4°C 44% 2.0 mph NNE3.2 kmh NNE -- 30.44 in1030.8 mb 0.00 in0.0 mm 0.00 in0.0 mm 0.00 in0.0 mm
02:23 PM 47.0°F8.3°C 24.8°F-4.0°C 42% 3.0 mph E4.8 kmh E -- 30.43 in1030.5 mb 0.00 in0.0 mm 0.00 in0.0 mm 0.00 in0.0 mm
02:28 PM 47.3°F8.5°C 25.2°F-3.8°C 42% 3.0 mph E4.8 kmh E -- 30.43 in1030.5 mb 0.00 in0.0 mm 0.00 in0.0 mm 0.00 in0.0 mm
02:33 PM 46.6°F8.1°C 24.5°F-4.2°C 42% 3.0 mph N4.8 kmh N -- 30.43 in1030.5 mb 0.00 in0.0 mm 0.00 in0.0 mm 0.00 in0.0 mm
02:38 PM 47.2°F8.4°C 24.4°F-4.2°C 41% 3.0 mph ESE4.8 kmh ESE -- 30.43 in1030.5 mb 0.00 in0.0 mm 0.00 in0.0 mm 0.00 in0.0 mm
02:43 PM 47.3°F8.5°C 24.0°F-4.4°C 40% 3.0 mph NE4.8 kmh NE -- 30.43 in1030.5 mb 0.00 in0.0 mm 0.00 in0.0 mm 0.00 in0.0 mm
02:49 PM 47.5°F8.6°C 24.7°F-4.1°C 41% 4.0 mph E6.4 kmh E -- 30.42 in1030.1 mb 0.00 in0.0 mm 0.00 in0.0 mm 0.00 in0.0 mm
02:53 PM 47.5°F8.6°C 23.5°F-4.7°C 39% 2.0 mph SE3.2 kmh SE -- 30.42 in1030.1 mb 0.00 in0.0 mm 0.00 in0.0 mm 0.00 in0.0 mm
02:58 PM 47.2°F8.4°C 23.8°F-4.6°C 40% 2.0 mph ENE3.2 kmh ENE -- 30.42 in1030.1 mb 0.00 in0.0 mm 0.00 in0.0 mm 0.00 in0.0 mm
03:04 PM 47.4°F8.6°C 24.7°F-4.1°C 41% 1.0 mph SE1.6 kmh SE -- 30.41 in1029.8 mb 0.00 in0.0 mm 0.00 in0.0 mm 0.00 in0.0 mm
03:08 PM 47.5°F8.6°C 24.2°F-4.3°C 40% 3.0 mph SE4.8 kmh SE -- 30.41 in1029.8 mb 0.00 in0.0 mm 0.00 in0.0 mm 0.00 in0.0 mm
03:13 PM 47.4°F8.6°C 24.2°F-4.3°C 40% 2.0 mph SE3.2 kmh SE -- 30.40 in1029.5 mb 0.00 in0.0 mm 0.00 in0.0 mm 0.00 in0.0 mm
03:18 PM 47.4°F8.6°C 24.2°F-4.3°C 40% 2.0 mph SE3.2 kmh SE -- 30.40 in1029.5 mb 0.00 in0.0 mm 0.00 in0.0 mm 0.00 in0.0 mm
03:24 PM 47.4°F8.6°C 24.7°F-4.1°C 41% 6.0 mph E9.7 kmh E -- 30.40 in1029.5 mb 0.00 in0.0 mm 0.00 in0.0 mm 0.00 in0.0 mm
03:28 PM 47.4°F8.6°C 25.3°F-3.7°C 42% 5.0 mph ESE8.0 kmh ESE -- 30.39 in1029.1 mb 0.00 in0.0 mm 0.00 in0.0 mm 0.00 in0.0 mm
03:33 PM 47.4°F8.6°C 24.7°F-4.1°C 41% 3.0 mph ESE4.8 kmh ESE -- 30.39 in1029.1 mb 0.00 in0.0 mm 0.00 in0.0 mm 0.00 in0.0 mm
03:38 PM 47.3°F8.5°C 24.0°F-4.4°C 40% 4.0 mph E6.4 kmh E -- 30.39 in1029.1 mb 0.00 in0.0 mm 0.00 in0.0 mm 0.00 in0.0 mm
03:44 PM 47.2°F8.4°C 24.4°F-4.2°C 41% 5.0 mph SSE8.0 kmh SSE -- 30.38 in1028.8 mb 0.00 in0.0 mm 0.00 in0.0 mm 0.00 in0.0 mm
03:48 PM 47.1°F8.4°C 25.0°F-3.9°C 42% 5.0 mph E8.0 kmh E -- 30.38 in1028.8 mb 0.00 in0.0 mm 0.00 in0.0 mm 0.00 in0.0 mm
03:53 PM 47.1°F8.4°C 25.0°F-3.9°C 42% 3.0 mph E4.8 kmh E -- 30.39 in1029.1 mb 0.00 in0.0 mm 0.00 in0.0 mm 0.00 in0.0 mm
03:58 PM 47.1°F8.4°C 25.0°F-3.9°C 42% 4.0 mph ENE6.4 kmh ENE -- 30.39 in1029.1 mb 0.00 in0.0 mm 0.00 in0.0 mm 0.00 in0.0 mm
04:04 PM 46.8°F8.2°C 25.8°F-3.4°C 44% Calm Calm -- 30.39 in1029.1 mb 0.00 in0.0 mm 0.00 in0.0 mm 0.00 in0.0 mm
04:08 PM 46.7°F8.2°C 25.8°F-3.4°C 44% 3.0 mph ESE4.8 kmh ESE -- 30.39 in1029.1 mb 0.00 in0.0 mm 0.00 in0.0 mm 0.00 in0.0 mm
04:13 PM 46.7°F8.2°C 26.3°F-3.2°C 45% 2.0 mph NNE3.2 kmh NNE -- 30.39 in1029.1 mb 0.00 in0.0 mm 0.00 in0.0 mm 0.00 in0.0 mm
04:19 PM 46.4°F8.0°C 26.0°F-3.3°C 45% 4.0 mph E6.4 kmh E -- 30.38 in1028.8 mb 0.00 in0.0 mm 0.00 in0.0 mm 0.00 in0.0 mm
04:23 PM 46.2°F7.9°C 26.4°F-3.1°C 46% 2.0 mph ESE3.2 kmh ESE -- 30.38 in1028.8 mb 0.00 in0.0 mm 0.00 in0.0 mm 0.00 in0.0 mm
04:28 PM 46.1°F7.8°C 26.7°F-2.9°C 47% 3.0 mph SE4.8 kmh SE -- 30.38 in1028.8 mb 0.00 in0.0 mm 0.00 in0.0 mm 0.00 in0.0 mm
04:33 PM 45.9°F7.7°C 26.6°F-3.0°C 47% Calm Calm -- 30.39 in1029.1 mb 0.00 in0.0 mm 0.00 in0.0 mm 0.00 in0.0 mm
04:38 PM 45.6°F7.6°C 26.9°F-2.8°C 48% 3.0 mph ESE4.8 kmh ESE -- 30.39 in1029.1 mb 0.00 in0.0 mm 0.00 in0.0 mm 0.00 in0.0 mm
04:43 PM 45.5°F7.5°C 26.8°F-2.9°C 48% 3.0 mph ESE4.8 kmh ESE -- 30.39 in1029.1 mb 0.00 in0.0 mm 0.00 in0.0 mm 0.00 in0.0 mm
04:44 PM 45.5°F7.5°C 26.8°F-2.9°C 48% 1.0 mph SSE1.6 kmh SSE -- 30.39 in1029.1 mb 0.00 in0.0 mm 0.00 in0.0 mm 0.00 in0.0 mm
04:48 PM 45.3°F7.4°C 26.6°F-3.0°C 48% 2.0 mph E3.2 kmh E -- 30.38 in1028.8 mb 0.00 in0.0 mm 0.00 in0.0 mm 0.00 in0.0 mm
04:53 PM 45.0°F7.2°C 26.8°F-2.9°C 49% 1.0 mph SE1.6 kmh SE -- 30.39 in1029.1 mb 0.00 in0.0 mm 0.00 in0.0 mm 0.00 in0.0 mm
04:59 PM 44.9°F7.2°C 26.8°F-2.9°C 49% 2.0 mph SE3.2 kmh SE -- 30.39 in1029.1 mb 0.00 in0.0 mm 0.00 in0.0 mm 0.00 in0.0 mm
05:03 PM 44.6°F7.0°C 26.9°F-2.8°C 50% Calm Calm -- 30.39 in1029.1 mb 0.00 in0.0 mm 0.00 in0.0 mm 0.00 in0.0 mm
05:08 PM 44.3°F6.8°C 26.6°F-3.0°C 50% Calm Calm -- 30.39 in1029.1 mb 0.00 in0.0 mm 0.00 in0.0 mm 0.00 in0.0 mm
05:13 PM 43.7°F6.5°C 26.6°F-3.0°C 51% Calm Calm -- 30.39 in1029.1 mb 0.00 in0.0 mm 0.00 in0.0 mm 0.00 in0.0 mm
05:19 PM 43.2°F6.2°C 26.5°F-3.1°C 52% Calm Calm -- 30.39 in1029.1 mb 0.00 in0.0 mm 0.00 in0.0 mm 0.00 in0.0 mm
05:23 PM 42.6°F5.9°C 26.0°F-3.3°C 52% Calm Calm -- 30.40 in1029.5 mb 0.00 in0.0 mm 0.00 in0.0 mm 0.00 in0.0 mm
05:28 PM 42.2°F5.7°C 27.1°F-2.7°C 55% Calm Calm -- 30.39 in1029.1 mb 0.00 in0.0 mm 0.00 in0.0 mm 0.00 in0.0 mm
05:33 PM 42.0°F5.6°C 27.4°F-2.6°C 56% 2.0 mph ESE3.2 kmh ESE -- 30.39 in1029.1 mb 0.00 in0.0 mm 0.00 in0.0 mm 0.00 in0.0 mm
05:39 PM 41.7°F5.4°C 27.0°F-2.8°C 56% 1.0 mph SE1.6 kmh SE -- 30.38 in1028.8 mb 0.00 in0.0 mm 0.00 in0.0 mm 0.00 in0.0 mm
05:43 PM 41.4°F5.2°C 27.1°F-2.7°C 57% Calm Calm -- 30.38 in1028.8 mb 0.00 in0.0 mm 0.00 in0.0 mm 0.00 in0.0 mm
05:48 PM 41.2°F5.1°C 26.9°F-2.8°C 57% Calm Calm -- 30.38 in1028.8 mb 0.00 in0.0 mm 0.00 in0.0 mm 0.00 in0.0 mm
05:53 PM 40.8°F4.9°C 27.0°F-2.8°C 58% Calm Calm -- 30.38 in1028.8 mb 0.00 in0.0 mm 0.00 in0.0 mm 0.00 in0.0 mm
05:59 PM 40.5°F4.7°C 26.7°F-2.9°C 58% Calm Calm -- 30.38 in1028.8 mb 0.00 in0.0 mm 0.00 in0.0 mm 0.00 in0.0 mm
06:03 PM 40.1°F4.5°C 26.8°F-2.9°C 59% Calm Calm -- 30.38 in1028.8 mb 0.00 in0.0 mm 0.00 in0.0 mm 0.00 in0.0 mm
06:08 PM 39.8°F4.3°C 26.8°F-2.9°C 60% Calm Calm -- 30.38 in1028.8 mb 0.00 in0.0 mm 0.00 in0.0 mm 0.00 in0.0 mm
06:13 PM 39.6°F4.2°C 26.7°F-2.9°C 60% Calm Calm -- 30.38 in1028.8 mb 0.00 in0.0 mm 0.00 in0.0 mm 0.00 in0.0 mm
06:18 PM 39.3°F4.1°C 26.9°F-2.8°C 61% Calm Calm -- 30.38 in1028.8 mb 0.00 in0.0 mm 0.00 in0.0 mm 0.00 in0.0 mm
06:23 PM 39.0°F3.9°C 27.0°F-2.8°C 62% Calm Calm -- 30.38 in1028.8 mb 0.00 in0.0 mm 0.00 in0.0 mm 0.00 in0.0 mm
06:28 PM 38.8°F3.8°C 26.8°F-2.9°C 62% Calm Calm -- 30.38 in1028.8 mb 0.00 in0.0 mm 0.00 in0.0 mm 0.00 in0.0 mm
06:33 PM 38.5°F3.6°C 26.8°F-2.9°C 63% Calm Calm -- 30.38 in1028.8 mb 0.00 in0.0 mm 0.00 in0.0 mm 0.00 in0.0 mm
06:39 PM 38.3°F3.5°C 27.1°F-2.7°C 64% Calm Calm -- 30.38 in1028.8 mb 0.00 in0.0 mm 0.00 in0.0 mm 0.00 in0.0 mm
06:43 PM 38.2°F3.4°C 27.6°F-2.4°C 66% 2.0 mph E3.2 kmh E -- 30.38 in1028.8 mb 0.00 in0.0 mm 0.00 in0.0 mm 0.00 in0.0 mm
06:48 PM 38.3°F3.5°C 27.8°F-2.3°C 66% Calm Calm -- 30.37 in1028.4 mb 0.00 in0.0 mm 0.00 in0.0 mm 0.00 in0.0 mm
06:54 PM 38.1°F3.4°C 27.3°F-2.6°C 65% 1.0 mph SE1.6 kmh SE -- 30.37 in1028.4 mb 0.00 in0.0 mm 0.00 in0.0 mm 0.00 in0.0 mm
06:58 PM 38.1°F3.4°C 27.6°F-2.4°C 66% Calm Calm -- 30.37 in1028.4 mb 0.00 in0.0 mm 0.00 in0.0 mm 0.00 in0.0 mm
07:03 PM 37.9°F3.3°C 27.1°F-2.7°C 65% Calm Calm -- 30.37 in1028.4 mb 0.00 in0.0 mm 0.00 in0.0 mm 0.00 in0.0 mm
07:08 PM 37.7°F3.2°C 27.3°F-2.6°C 66% Calm Calm -- 30.36 in1028.1 mb 0.00 in0.0 mm 0.00 in0.0 mm 0.00 in0.0 mm
07:14 PM 37.6°F3.1°C 27.5°F-2.5°C 67% 1.0 mph SE1.6 kmh SE -- 30.37 in1028.4 mb 0.00 in0.0 mm 0.00 in0.0 mm 0.00 in0.0 mm
07:18 PM 37.3°F2.9°C 27.9°F-2.3°C 69% Calm Calm -- 30.38 in1028.8 mb 0.00 in0.0 mm 0.00 in0.0 mm 0.00 in0.0 mm
07:23 PM 37.0°F2.8°C 28.1°F-2.2°C 70% Calm Calm -- 30.38 in1028.8 mb 0.00 in0.0 mm 0.00 in0.0 mm 0.00 in0.0 mm
07:28 PM 36.8°F2.7°C 28.6°F-1.9°C 72% Calm Calm -- 30.39 in1029.1 mb 0.00 in0.0 mm 0.00 in0.0 mm 0.00 in0.0 mm
07:34 PM 36.5°F2.5°C 28.2°F-2.1°C 72% Calm Calm -- 30.39 in1029.1 mb 0.00 in0.0 mm 0.00 in0.0 mm 0.00 in0.0 mm
07:38 PM 36.3°F2.4°C 28.1°F-2.2°C 72% Calm Calm -- 30.39 in1029.1 mb 0.00 in0.0 mm 0.00 in0.0 mm 0.00 in0.0 mm
07:43 PM 36.0°F2.2°C 27.7°F-2.4°C 72% Calm Calm -- 30.39 in1029.1 mb 0.00 in0.0 mm 0.00 in0.0 mm 0.00 in0.0 mm
07:48 PM 36.0°F2.2°C 28.0°F-2.2°C 73% Calm Calm -- 30.39 in1029.1 mb 0.00 in0.0 mm 0.00 in0.0 mm 0.00 in0.0 mm
07:54 PM 35.9°F2.2°C 28.4°F-2.0°C 74% Calm Calm -- 30.39 in1029.1 mb 0.00 in0.0 mm 0.00 in0.0 mm 0.00 in0.0 mm
07:58 PM 36.1°F2.3°C 28.6°F-1.9°C 74% Calm Calm -- 30.38 in1028.8 mb 0.00 in0.0 mm 0.00 in0.0 mm 0.00 in0.0 mm
08:03 PM 36.2°F2.3°C 28.6°F-1.9°C 74% 2.0 mph N3.2 kmh N -- 30.38 in1028.8 mb 0.00 in0.0 mm 0.00 in0.0 mm 0.00 in0.0 mm
08:08 PM 36.3°F2.4°C 28.7°F-1.8°C 74% 3.0 mph N4.8 kmh N -- 30.38 in1028.8 mb 0.00 in0.0 mm 0.00 in0.0 mm 0.00 in0.0 mm
08:13 PM 36.2°F2.3°C 28.9°F-1.7°C 75% 1.0 mph NE1.6 kmh NE -- 30.37 in1028.4 mb 0.00 in0.0 mm 0.00 in0.0 mm 0.00 in0.0 mm
08:18 PM 36.3°F2.4°C 29.1°F-1.6°C 75% 1.0 mph E1.6 kmh E -- 30.37 in1028.4 mb 0.00 in0.0 mm 0.00 in0.0 mm 0.00 in0.0 mm
08:23 PM 36.4°F2.4°C 29.1°F-1.6°C 75% 2.0 mph E3.2 kmh E -- 30.36 in1028.1 mb 0.00 in0.0 mm 0.00 in0.0 mm 0.00 in0.0 mm
08:28 PM 36.6°F2.6°C 29.7°F-1.3°C 76% 2.0 mph N3.2 kmh N -- 30.35 in1027.8 mb 0.00 in0.0 mm 0.00 in0.0 mm 0.00 in0.0 mm
08:34 PM 37.3°F2.9°C 29.6°F-1.3°C 74% 2.0 mph N3.2 kmh N -- 30.35 in1027.8 mb 0.00 in0.0 mm 0.00 in0.0 mm 0.00 in0.0 mm
08:38 PM 37.1°F2.8°C 29.8°F-1.2°C 75% 2.0 mph N3.2 kmh N -- 30.36 in1028.1 mb 0.00 in0.0 mm 0.00 in0.0 mm 0.00 in0.0 mm
08:43 PM 37.1°F2.8°C 29.8°F-1.2°C 75% 2.0 mph NE3.2 kmh NE -- 30.36 in1028.1 mb 0.00 in0.0 mm 0.00 in0.0 mm 0.00 in0.0 mm
08:49 PM 36.6°F2.6°C 29.4°F-1.4°C 75% 3.0 mph NNE4.8 kmh NNE -- 30.36 in1028.1 mb 0.00 in0.0 mm 0.00 in0.0 mm 0.00 in0.0 mm
08:54 PM 36.5°F2.5°C 29.6°F-1.3°C 76% 1.0 mph N1.6 kmh N -- 30.36 in1028.1 mb 0.00 in0.0 mm 0.00 in0.0 mm 0.00 in0.0 mm
08:58 PM 36.2°F2.3°C 29.5°F-1.4°C 77% 2.0 mph N3.2 kmh N -- 30.36 in1028.1 mb 0.00 in0.0 mm 0.00 in0.0 mm 0.00 in0.0 mm
09:03 PM 36.0°F2.2°C 29.4°F-1.4°C 77% 2.0 mph NE3.2 kmh NE -- 30.36 in1028.1 mb 0.00 in0.0 mm 0.00 in0.0 mm 0.00 in0.0 mm
09:08 PM 35.9°F2.2°C 29.4°F-1.4°C 77% 2.0 mph NNE3.2 kmh NNE -- 30.36 in1028.1 mb 0.00 in0.0 mm 0.00 in0.0 mm 0.00 in0.0 mm
09:14 PM 35.8°F2.1°C 28.9°F-1.7°C 76% 2.0 mph NNE3.2 kmh NNE -- 30.36 in1028.1 mb 0.00 in0.0 mm 0.00 in0.0 mm 0.00 in0.0 mm
09:18 PM 35.7°F2.1°C 28.9°F-1.7°C 76% 1.0 mph WSW1.6 kmh WSW -- 30.37 in1028.4 mb 0.00 in0.0 mm 0.00 in0.0 mm 0.00 in0.0 mm
09:23 PM 35.8°F2.1°C 29.2°F-1.6°C 77% 2.0 mph NNW3.2 kmh NNW -- 30.37 in1028.4 mb 0.00 in0.0 mm 0.00 in0.0 mm 0.00 in0.0 mm
09:29 PM 35.6°F2.0°C 29.3°F-1.5°C 78% 2.0 mph NW3.2 kmh NW -- 30.38 in1028.8 mb 0.00 in0.0 mm 0.00 in0.0 mm 0.00 in0.0 mm
09:33 PM 35.5°F1.9°C 29.2°F-1.6°C 78% 2.0 mph WSW3.2 kmh WSW -- 30.38 in1028.8 mb 0.00 in0.0 mm 0.00 in0.0 mm 0.00 in0.0 mm
09:38 PM 35.5°F1.9°C 28.5°F-1.9°C 76% Calm Calm -- 30.38 in1028.8 mb 0.00 in0.0 mm 0.00 in0.0 mm 0.00 in0.0 mm
09:43 PM 35.5°F1.9°C 28.8°F-1.8°C 77% 1.0 mph SSW1.6 kmh SSW -- 30.38 in1028.8 mb 0.00 in0.0 mm 0.00 in0.0 mm 0.00 in0.0 mm
09:48 PM 35.6°F2.0°C 28.7°F-1.8°C 76% 2.0 mph NW3.2 kmh NW -- 30.38 in1028.8 mb 0.00 in0.0 mm 0.00 in0.0 mm 0.00 in0.0 mm
09:53 PM 35.8°F2.1°C 28.5°F-1.9°C 75% 2.0 mph NNW3.2 kmh NNW -- 30.38 in1028.8 mb 0.00 in0.0 mm 0.00 in0.0 mm 0.00 in0.0 mm
09:58 PM 35.9°F2.2°C 29.0°F-1.7°C 76% Calm Calm -- 30.37 in1028.4 mb 0.00 in0.0 mm 0.00 in0.0 mm 0.00 in0.0 mm
10:03 PM 35.8°F2.1°C 28.5°F-1.9°C 75% Calm Calm -- 30.38 in1028.8 mb 0.00 in0.0 mm 0.00 in0.0 mm 0.00 in0.0 mm
10:09 PM 35.9°F2.2°C 28.7°F-1.8°C 75% 1.0 mph E1.6 kmh E -- 30.37 in1028.4 mb 0.00 in0.0 mm 0.00 in0.0 mm 0.00 in0.0 mm
10:13 PM 35.8°F2.1°C 28.2°F-2.1°C 74% Calm Calm -- 30.37 in1028.4 mb 0.00 in0.0 mm 0.00 in0.0 mm 0.00 in0.0 mm
10:18 PM 35.6°F2.0°C 28.0°F-2.2°C 74% 1.0 mph E1.6 kmh E -- 30.36 in1028.1 mb 0.00 in0.0 mm 0.00 in0.0 mm 0.00 in0.0 mm
10:23 PM 35.5°F1.9°C 27.9°F-2.3°C 74% 1.0 mph ESE1.6 kmh ESE -- 30.36 in1028.1 mb 0.00 in0.0 mm 0.00 in0.0 mm 0.00 in0.0 mm
10:29 PM 35.5°F1.9°C 27.2°F-2.7°C 72% Calm Calm -- 30.36 in1028.1 mb 0.00 in0.0 mm 0.00 in0.0 mm 0.00 in0.0 mm
10:33 PM 35.6°F2.0°C 27.7°F-2.4°C 73% Calm Calm -- 30.35 in1027.8 mb 0.00 in0.0 mm 0.00 in0.0 mm 0.00 in0.0 mm
10:38 PM 35.5°F1.9°C 27.5°F-2.5°C 73% 1.0 mph ESE1.6 kmh ESE -- 30.35 in1027.8 mb 0.00 in0.0 mm 0.00 in0.0 mm 0.00 in0.0 mm
10:43 PM 35.5°F1.9°C 27.5°F-2.5°C 73% 2.0 mph E3.2 kmh E -- 30.35 in1027.8 mb 0.00 in0.0 mm 0.00 in0.0 mm 0.00 in0.0 mm
10:49 PM 35.6°F2.0°C 27.7°F-2.4°C 73% 2.0 mph E3.2 kmh E -- 30.34 in1027.4 mb 0.00 in0.0 mm 0.00 in0.0 mm 0.00 in0.0 mm
10:53 PM 35.7°F2.1°C 27.2°F-2.7°C 71% 1.0 mph SE1.6 kmh SE -- 30.33 in1027.1 mb 0.00 in0.0 mm 0.00 in0.0 mm 0.00 in0.0 mm
10:58 PM 35.8°F2.1°C 27.2°F-2.7°C 71% 2.0 mph ESE3.2 kmh ESE -- 30.33 in1027.1 mb 0.00 in0.0 mm 0.00 in0.0 mm 0.00 in0.0 mm
11:03 PM 36.3°F2.4°C 27.4°F-2.6°C 70% 2.0 mph ESE3.2 kmh ESE -- 30.33 in1027.1 mb 0.00 in0.0 mm 0.00 in0.0 mm 0.00 in0.0 mm
11:09 PM 36.6°F2.6°C 27.7°F-2.4°C 70% 2.0 mph ENE3.2 kmh ENE -- 30.33 in1027.1 mb 0.00 in0.0 mm 0.00 in0.0 mm 0.00 in0.0 mm
11:13 PM 36.6°F2.6°C 28.7°F-1.8°C 73% 1.0 mph SE1.6 kmh SE -- 30.34 in1027.4 mb 0.00 in0.0 mm 0.00 in0.0 mm 0.00 in0.0 mm
11:18 PM 36.4°F2.4°C 28.1°F-2.2°C 72% 1.0 mph SE1.6 kmh SE -- 30.33 in1027.1 mb 0.00 in0.0 mm 0.00 in0.0 mm 0.00 in0.0 mm
11:24 PM 36.3°F2.4°C 27.7°F-2.4°C 71% Calm Calm -- 30.33 in1027.1 mb 0.00 in0.0 mm 0.00 in0.0 mm 0.00 in0.0 mm
11:28 PM 36.2°F2.3°C 27.5°F-2.5°C 71% Calm Calm -- 30.33 in1027.1 mb 0.00 in0.0 mm 0.00 in0.0 mm 0.00 in0.0 mm
11:33 PM 36.2°F2.3°C 27.9°F-2.3°C 72% Calm Calm -- 30.33 in1027.1 mb 0.00 in0.0 mm 0.00 in0.0 mm 0.00 in0.0 mm
11:38 PM 36.0°F2.2°C 28.0°F-2.2°C 73% 1.0 mph SE1.6 kmh SE -- 30.33 in1027.1 mb 0.00 in0.0 mm 0.00 in0.0 mm 0.00 in0.0 mm
11:43 PM 35.8°F2.1°C 28.5°F-1.9°C 75% 2.0 mph NW3.2 kmh NW -- 30.33 in1027.1 mb 0.00 in0.0 mm 0.00 in0.0 mm 0.00 in0.0 mm
11:48 PM 35.6°F2.0°C 28.7°F-1.8°C 76% Calm Calm -- 30.33 in1027.1 mb 0.00 in0.0 mm 0.00 in0.0 mm 0.00 in0.0 mm
11:53 PM 35.4°F1.9°C 28.8°F-1.8°C 77% Calm Calm -- 30.33 in1027.1 mb 0.00 in0.0 mm 0.00 in0.0 mm 0.00 in0.0 mm
11:58 PM 35.3°F1.8°C 28.7°F-1.8°C 77% Calm Calm -- 30.33 in1027.1 mb 0.00 in0.0 mm 0.00 in0.0 mm 0.00 in0.0 mm